sensor_id;sensor_type;location;lat;lon;timestamp;P1;durP1;ratioP1;P2;durP2;ratioP2
10657;SDS011;5377;43.276;26.930;2024-03-23T00:54:09;7.10;;;5.30;;
10657;SDS011;5377;43.276;26.930;2024-03-23T00:56:34;7.07;;;6.03;;
10657;SDS011;5377;43.276;26.930;2024-03-23T00:59:01;12.17;;;8.47;;
10657;SDS011;5377;43.276;26.930;2024-03-23T01:01:27;7.30;;;5.77;;
10657;SDS011;5377;43.276;26.930;2024-03-23T01:03:53;12.07;;;6.93;;
10657;SDS011;5377;43.276;26.930;2024-03-23T01:06:19;6.60;;;5.20;;
10657;SDS011;5377;43.276;26.930;2024-03-23T01:08:46;11.53;;;7.93;;
10657;SDS011;5377;43.276;26.930;2024-03-23T01:11:13;10.73;;;8.17;;
10657;SDS011;5377;43.276;26.930;2024-03-23T01:13:40;15.10;;;10.27;;
10657;SDS011;5377;43.276;26.930;2024-03-23T01:16:05;17.27;;;10.80;;
10657;SDS011;5377;43.276;26.930;2024-03-23T01:18:32;16.93;;;12.33;;
10657;SDS011;5377;43.276;26.930;2024-03-23T01:20:58;17.07;;;11.20;;
10657;SDS011;5377;43.276;26.930;2024-03-23T01:23:25;14.17;;;9.57;;
10657;SDS011;5377;43.276;26.930;2024-03-23T01:25:53;18.27;;;11.00;;
10657;SDS011;5377;43.276;26.930;2024-03-23T01:28:22;14.40;;;10.07;;
10657;SDS011;5377;43.276;26.930;2024-03-23T01:30:48;18.90;;;14.03;;
10657;SDS011;5377;43.276;26.930;2024-03-23T01:33:15;21.23;;;12.40;;
10657;SDS011;5377;43.276;26.930;2024-03-23T01:35:40;21.93;;;11.77;;
10657;SDS011;5377;43.276;26.930;2024-03-23T01:38:07;21.17;;;12.03;;
10657;SDS011;5377;43.276;26.930;2024-03-23T01:40:33;22.67;;;13.47;;
10657;SDS011;5377;43.276;26.930;2024-03-23T01:43:02;23.07;;;13.17;;
10657;SDS011;5377;43.276;26.930;2024-03-23T01:45:30;20.20;;;12.23;;
10657;SDS011;5377;43.276;26.930;2024-03-23T01:47:57;19.40;;;13.10;;
10657;SDS011;5377;43.276;26.930;2024-03-23T01:50:22;22.50;;;14.53;;
10657;SDS011;5377;43.276;26.930;2024-03-23T01:52:50;24.37;;;15.23;;
10657;SDS011;5377;43.276;26.930;2024-03-23T01:55:15;22.57;;;12.37;;
10657;SDS011;5377;43.276;26.930;2024-03-23T01:57:42;21.03;;;15.20;;
10657;SDS011;5377;43.276;26.930;2024-03-23T02:00:08;26.30;;;14.73;;
10657;SDS011;5377;43.276;26.930;2024-03-23T02:02:41;26.90;;;14.23;;
10657;SDS011;5377;43.276;26.930;2024-03-23T02:05:07;22.00;;;13.43;;
10657;SDS011;5377;43.276;26.930;2024-03-23T02:07:34;22.73;;;13.83;;
10657;SDS011;5377;43.276;26.930;2024-03-23T02:10:00;26.33;;;13.57;;
10657;SDS011;5377;43.276;26.930;2024-03-23T02:12:27;18.33;;;11.53;;
10657;SDS011;5377;43.276;26.930;2024-03-23T02:14:52;17.97;;;12.80;;
10657;SDS011;5377;43.276;26.930;2024-03-23T02:17:19;18.97;;;12.80;;
10657;SDS011;5377;43.276;26.930;2024-03-23T02:19:46;21.23;;;13.80;;
10657;SDS011;5377;43.276;26.930;2024-03-23T02:22:13;17.13;;;12.37;;
10657;SDS011;5377;43.276;26.930;2024-03-23T02:24:42;18.80;;;11.90;;
10657;SDS011;5377;43.276;26.930;2024-03-23T02:27:09;24.97;;;13.37;;
10657;SDS011;5377;43.276;26.930;2024-03-23T02:29:34;18.57;;;13.50;;
10657;SDS011;5377;43.276;26.930;2024-03-23T02:32:01;19.27;;;12.57;;
10657;SDS011;5377;43.276;26.930;2024-03-23T02:34:27;17.43;;;13.20;;
10657;SDS011;5377;43.276;26.930;2024-03-23T02:36:53;17.00;;;12.43;;
10657;SDS011;5377;43.276;26.930;2024-03-23T02:39:19;21.23;;;14.67;;
10657;SDS011;5377;43.276;26.930;2024-03-23T02:41:47;24.20;;;16.40;;
10657;SDS011;5377;43.276;26.930;2024-03-23T02:44:13;28.50;;;21.13;;
10657;SDS011;5377;43.276;26.930;2024-03-23T02:46:40;31.07;;;22.27;;
10657;SDS011;5377;43.276;26.930;2024-03-23T02:49:05;37.57;;;27.73;;
10657;SDS011;5377;43.276;26.930;2024-03-23T02:51:32;34.50;;;27.07;;
10657;SDS011;5377;43.276;26.930;2024-03-23T02:53:58;38.17;;;28.30;;
10657;SDS011;5377;43.276;26.930;2024-03-23T02:56:24;27.90;;;19.30;;
10657;SDS011;5377;43.276;26.930;2024-03-23T02:58:51;34.10;;;20.03;;
10657;SDS011;5377;43.276;26.930;2024-03-23T03:01:18;40.73;;;27.10;;
10657;SDS011;5377;43.276;26.930;2024-03-23T03:03:44;38.33;;;27.97;;
10657;SDS011;5377;43.276;26.930;2024-03-23T03:06:10;40.47;;;26.10;;
10657;SDS011;5377;43.276;26.930;2024-03-23T03:08:36;39.63;;;29.57;;
10657;SDS011;5377;43.276;26.930;2024-03-23T03:11:03;29.57;;;22.63;;
10657;SDS011;5377;43.276;26.930;2024-03-23T03:13:28;28.57;;;21.70;;
10657;SDS011;5377;43.276;26.930;2024-03-23T03:15:56;31.90;;;23.97;;
10657;SDS011;5377;43.276;26.930;2024-03-23T03:18:23;32.13;;;23.03;;
10657;SDS011;5377;43.276;26.930;2024-03-23T03:20:50;31.53;;;21.20;;
10657;SDS011;5377;43.276;26.930;2024-03-23T03:23:19;24.40;;;18.03;;
10657;SDS011;5377;43.276;26.930;2024-03-23T03:25:46;26.20;;;17.30;;
10657;SDS011;5377;43.276;26.930;2024-03-23T03:28:11;28.13;;;17.93;;
10657;SDS011;5377;43.276;26.930;2024-03-23T03:30:38;26.03;;;17.97;;
10657;SDS011;5377;43.276;26.930;2024-03-23T03:33:05;35.60;;;22.07;;
10657;SDS011;5377;43.276;26.930;2024-03-23T03:35:32;31.20;;;22.43;;
10657;SDS011;5377;43.276;26.930;2024-03-23T03:37:57;39.90;;;25.07;;
10657;SDS011;5377;43.276;26.930;2024-03-23T03:40:24;32.27;;;21.50;;
10657;SDS011;5377;43.276;26.930;2024-03-23T03:42:50;29.33;;;20.17;;
10657;SDS011;5377;43.276;26.930;2024-03-23T03:45:17;26.20;;;18.57;;
10657;SDS011;5377;43.276;26.930;2024-03-23T03:47:42;21.00;;;15.43;;
10657;SDS011;5377;43.276;26.930;2024-03-23T03:50:10;25.60;;;17.10;;
10657;SDS011;5377;43.276;26.930;2024-03-23T03:52:36;23.97;;;15.40;;
10657;SDS011;5377;43.276;26.930;2024-03-23T03:55:03;21.13;;;14.60;;
10657;SDS011;5377;43.276;26.930;2024-03-23T03:57:29;18.93;;;13.23;;
10657;SDS011;5377;43.276;26.930;2024-03-23T03:59:55;21.83;;;13.97;;
10657;SDS011;5377;43.276;26.930;2024-03-23T04:02:21;23.23;;;13.67;;
10657;SDS011;5377;43.276;26.930;2024-03-23T04:04:48;19.97;;;13.13;;
10657;SDS011;5377;43.276;26.930;2024-03-23T04:07:15;17.63;;;12.87;;
10657;SDS011;5377;43.276;26.930;2024-03-23T04:09:42;17.33;;;13.50;;
10657;SDS011;5377;43.276;26.930;2024-03-23T04:12:08;17.93;;;12.70;;
10657;SDS011;5377;43.276;26.930;2024-03-23T04:14:35;25.57;;;13.70;;
10657;SDS011;5377;43.276;26.930;2024-03-23T04:17:01;20.57;;;13.93;;
10657;SDS011;5377;43.276;26.930;2024-03-23T04:19:27;26.03;;;13.77;;
10657;SDS011;5377;43.276;26.930;2024-03-23T04:21:53;23.80;;;15.43;;
10657;SDS011;5377;43.276;26.930;2024-03-23T04:24:23;21.97;;;14.90;;
10657;SDS011;5377;43.276;26.930;2024-03-23T04:26:49;24.73;;;14.70;;
10657;SDS011;5377;43.276;26.930;2024-03-23T04:29:16;23.97;;;16.23;;
10657;SDS011;5377;43.276;26.930;2024-03-23T04:31:41;27.47;;;16.57;;
10657;SDS011;5377;43.276;26.930;2024-03-23T04:34:08;25.87;;;16.77;;
10657;SDS011;5377;43.276;26.930;2024-03-23T04:36:34;22.53;;;16.80;;
10657;SDS011;5377;43.276;26.930;2024-03-23T04:39:01;28.77;;;16.90;;
10657;SDS011;5377;43.276;26.930;2024-03-23T04:41:29;25.70;;;16.03;;
10657;SDS011;5377;43.276;26.930;2024-03-23T04:43:56;22.10;;;16.30;;
10657;SDS011;5377;43.276;26.930;2024-03-23T04:46:23;27.37;;;16.03;;
10657;SDS011;5377;43.276;26.930;2024-03-23T04:48:49;30.10;;;17.33;;
10657;SDS011;5377;43.276;26.930;2024-03-23T04:51:20;36.00;;;18.40;;
10657;SDS011;5377;43.276;26.930;2024-03-23T04:53:47;26.57;;;15.27;;
10657;SDS011;5377;43.276;26.930;2024-03-23T04:56:13;29.37;;;16.17;;
10657;SDS011;5377;43.276;26.930;2024-03-23T04:58:41;28.53;;;16.03;;
10657;SDS011;5377;43.276;26.930;2024-03-23T05:01:07;20.27;;;14.27;;
10657;SDS011;5377;43.276;26.930;2024-03-23T05:03:34;19.07;;;14.47;;
10657;SDS011;5377;43.276;26.930;2024-03-23T05:05:59;24.20;;;15.40;;
10657;SDS011;5377;43.276;26.930;2024-03-23T05:08:27;30.17;;;14.37;;
10657;SDS011;5377;43.276;26.930;2024-03-23T05:10:52;18.97;;;13.67;;
10657;SDS011;5377;43.276;26.930;2024-03-23T05:13:19;20.20;;;14.07;;
10657;SDS011;5377;43.276;26.930;2024-03-23T05:15:51;19.83;;;14.17;;
10657;SDS011;5377;43.276;26.930;2024-03-23T05:18:18;19.83;;;13.83;;
10657;SDS011;5377;43.276;26.930;2024-03-23T05:20:44;18.53;;;12.93;;
10657;SDS011;5377;43.276;26.930;2024-03-23T05:23:10;29.93;;;13.60;;
10657;SDS011;5377;43.276;26.930;2024-03-23T05:25:36;26.90;;;14.40;;
10657;SDS011;5377;43.276;26.930;2024-03-23T05:28:03;21.83;;;14.77;;
10657;SDS011;5377;43.276;26.930;2024-03-23T05:30:28;18.60;;;13.17;;
10657;SDS011;5377;43.276;26.930;2024-03-23T05:32:57;20.40;;;14.90;;
10657;SDS011;5377;43.276;26.930;2024-03-23T05:35:22;21.47;;;13.67;;
10657;SDS011;5377;43.276;26.930;2024-03-23T05:37:49;17.57;;;12.77;;
10657;SDS011;5377;43.276;26.930;2024-03-23T05:40:15;20.17;;;13.47;;
10657;SDS011;5377;43.276;26.930;2024-03-23T05:42:41;19.43;;;14.00;;
10657;SDS011;5377;43.276;26.930;2024-03-23T05:45:07;20.27;;;13.80;;
10657;SDS011;5377;43.276;26.930;2024-03-23T05:47:34;17.57;;;12.70;;
10657;SDS011;5377;43.276;26.930;2024-03-23T05:50:01;18.23;;;12.90;;
10657;SDS011;5377;43.276;26.930;2024-03-23T05:52:28;19.60;;;13.43;;
10657;SDS011;5377;43.276;26.930;2024-03-23T05:54:54;16.20;;;13.13;;
10657;SDS011;5377;43.276;26.930;2024-03-23T05:57:21;16.20;;;12.93;;
10657;SDS011;5377;43.276;26.930;2024-03-23T05:59:46;25.23;;;15.43;;
10657;SDS011;5377;43.276;26.930;2024-03-23T06:02:13;19.47;;;14.43;;
10657;SDS011;5377;43.276;26.930;2024-03-23T06:04:39;21.67;;;13.43;;
10657;SDS011;5377;43.276;26.930;2024-03-23T06:07:07;25.03;;;14.10;;
10657;SDS011;5377;43.276;26.930;2024-03-23T06:09:39;23.13;;;15.20;;
10657;SDS011;5377;43.276;26.930;2024-03-23T06:12:05;21.40;;;14.67;;
10657;SDS011;5377;43.276;26.930;2024-03-23T06:14:31;19.97;;;12.57;;
10657;SDS011;5377;43.276;26.930;2024-03-23T06:16:59;19.63;;;13.50;;
10657;SDS011;5377;43.276;26.930;2024-03-23T06:19:25;24.13;;;15.83;;
10657;SDS011;5377;43.276;26.930;2024-03-23T06:21:52;19.23;;;13.90;;
10657;SDS011;5377;43.276;26.930;2024-03-23T06:24:19;17.83;;;13.43;;
10657;SDS011;5377;43.276;26.930;2024-03-23T06:26:46;23.93;;;14.83;;
10657;SDS011;5377;43.276;26.930;2024-03-23T06:29:12;31.43;;;14.80;;
10657;SDS011;5377;43.276;26.930;2024-03-23T06:31:38;23.60;;;12.60;;
10657;SDS011;5377;43.276;26.930;2024-03-23T06:34:04;20.07;;;13.70;;
10657;SDS011;5377;43.276;26.930;2024-03-23T06:36:31;17.83;;;13.03;;
10657;SDS011;5377;43.276;26.930;2024-03-23T06:38:56;22.63;;;16.20;;
10657;SDS011;5377;43.276;26.930;2024-03-23T06:41:25;24.60;;;18.80;;
10657;SDS011;5377;43.276;26.930;2024-03-23T06:43:51;20.73;;;14.80;;
10657;SDS011;5377;43.276;26.930;2024-03-23T06:46:17;22.30;;;12.97;;
10657;SDS011;5377;43.276;26.930;2024-03-23T06:48:44;19.83;;;13.50;;
10657;SDS011;5377;43.276;26.930;2024-03-23T06:51:11;18.97;;;12.13;;
10657;SDS011;5377;43.276;26.930;2024-03-23T06:53:36;15.10;;;12.17;;
10657;SDS011;5377;43.276;26.930;2024-03-23T06:56:03;22.80;;;12.53;;
10657;SDS011;5377;43.276;26.930;2024-03-23T06:58:30;17.17;;;12.67;;
10657;SDS011;5377;43.276;26.930;2024-03-23T07:00:58;21.57;;;12.83;;
10657;SDS011;5377;43.276;26.930;2024-03-23T07:03:23;19.20;;;13.77;;
10657;SDS011;5377;43.276;26.930;2024-03-23T07:05:51;21.17;;;12.67;;
10657;SDS011;5377;43.276;26.930;2024-03-23T07:08:17;17.47;;;13.40;;
10657;SDS011;5377;43.276;26.930;2024-03-23T07:10:47;22.20;;;14.87;;
10657;SDS011;5377;43.276;26.930;2024-03-23T07:13:13;18.83;;;13.60;;
10657;SDS011;5377;43.276;26.930;2024-03-23T07:15:41;21.67;;;13.27;;
10657;SDS011;5377;43.276;26.930;2024-03-23T07:18:06;23.73;;;13.03;;
10657;SDS011;5377;43.276;26.930;2024-03-23T07:20:33;18.67;;;11.37;;
10657;SDS011;5377;43.276;26.930;2024-03-23T07:22:59;20.45;;;12.77;;
10657;SDS011;5377;43.276;26.930;2024-03-23T07:25:25;16.33;;;12.52;;
10657;SDS011;5377;43.276;26.930;2024-03-23T07:27:52;16.08;;;11.57;;
10657;SDS011;5377;43.276;26.930;2024-03-23T07:30:19;21.92;;;12.85;;
10657;SDS011;5377;43.276;26.930;2024-03-23T07:32:46;23.33;;;14.85;;
10657;SDS011;5377;43.276;26.930;2024-03-23T07:35:13;16.98;;;14.38;;
10657;SDS011;5377;43.276;26.930;2024-03-23T07:37:39;21.63;;;13.77;;
10657;SDS011;5377;43.276;26.930;2024-03-23T07:40:06;18.35;;;14.30;;
10657;SDS011;5377;43.276;26.930;2024-03-23T07:42:32;22.70;;;16.30;;
10657;SDS011;5377;43.276;26.930;2024-03-23T07:44:58;25.45;;;15.73;;
10657;SDS011;5377;43.276;26.930;2024-03-23T07:47:24;21.55;;;14.50;;
10657;SDS011;5377;43.276;26.930;2024-03-23T07:49:52;16.90;;;14.48;;
10657;SDS011;5377;43.276;26.930;2024-03-23T07:52:18;15.38;;;13.18;;
10657;SDS011;5377;43.276;26.930;2024-03-23T07:54:44;14.45;;;12.30;;
10657;SDS011;5377;43.276;26.930;2024-03-23T07:57:10;12.55;;;11.23;;
10657;SDS011;5377;43.276;26.930;2024-03-23T07:59:37;15.85;;;12.57;;
10657;SDS011;5377;43.276;26.930;2024-03-23T08:02:02;13.35;;;11.60;;
10657;SDS011;5377;43.276;26.930;2024-03-23T08:04:29;14.40;;;10.07;;
10657;SDS011;5377;43.276;26.930;2024-03-23T08:06:57;12.55;;;11.35;;
10657;SDS011;5377;43.276;26.930;2024-03-23T08:09:23;11.77;;;10.63;;
10657;SDS011;5377;43.276;26.930;2024-03-23T08:11:49;12.80;;;11.50;;
10657;SDS011;5377;43.276;26.930;2024-03-23T08:14:16;10.43;;;9.52;;
10657;SDS011;5377;43.276;26.930;2024-03-23T08:16:41;11.77;;;10.25;;
10657;SDS011;5377;43.276;26.930;2024-03-23T08:19:13;10.50;;;9.40;;
10657;SDS011;5377;43.276;26.930;2024-03-23T08:21:39;11.05;;;9.93;;
10657;SDS011;5377;43.276;26.930;2024-03-23T08:24:07;11.23;;;9.88;;
10657;SDS011;5377;43.276;26.930;2024-03-23T08:26:33;13.43;;;12.02;;
10657;SDS011;5377;43.276;26.930;2024-03-23T08:28:59;11.10;;;10.00;;
10657;SDS011;5377;43.276;26.930;2024-03-23T08:31:25;9.98;;;9.07;;
10657;SDS011;5377;43.276;26.930;2024-03-23T08:33:52;10.80;;;8.68;;
10657;SDS011;5377;43.276;26.930;2024-03-23T08:36:17;9.45;;;8.30;;
10657;SDS011;5377;43.276;26.930;2024-03-23T08:38:44;12.02;;;9.32;;
10657;SDS011;5377;43.276;26.930;2024-03-23T08:41:11;8.75;;;8.05;;
10657;SDS011;5377;43.276;26.930;2024-03-23T08:43:38;12.57;;;8.13;;
10657;SDS011;5377;43.276;26.930;2024-03-23T08:46:04;11.30;;;8.05;;
10657;SDS011;5377;43.276;26.930;2024-03-23T08:48:32;10.85;;;8.45;;
10657;SDS011;5377;43.276;26.930;2024-03-23T08:50:59;10.55;;;7.32;;
10657;SDS011;5377;43.276;26.930;2024-03-23T08:53:27;12.15;;;7.03;;
10657;SDS011;5377;43.276;26.930;2024-03-23T08:55:53;7.88;;;7.15;;
10657;SDS011;5377;43.276;26.930;2024-03-23T08:58:21;14.00;;;8.50;;
10657;SDS011;5377;43.276;26.930;2024-03-23T09:00:46;8.63;;;7.18;;
10657;SDS011;5377;43.276;26.930;2024-03-23T09:03:14;10.30;;;7.47;;
10657;SDS011;5377;43.276;26.930;2024-03-23T09:05:40;6.78;;;6.18;;
10657;SDS011;5377;43.276;26.930;2024-03-23T09:08:06;7.45;;;6.30;;
10657;SDS011;5377;43.276;26.930;2024-03-23T09:10:34;7.45;;;6.82;;
10657;SDS011;5377;43.276;26.930;2024-03-23T09:13:02;7.60;;;7.00;;
10657;SDS011;5377;43.276;26.930;2024-03-23T09:15:29;5.50;;;5.10;;
10657;SDS011;5377;43.276;26.930;2024-03-23T09:17:56;16.58;;;7.28;;
10657;SDS011;5377;43.276;26.930;2024-03-23T09:20:22;7.18;;;5.15;;
10657;SDS011;5377;43.276;26.930;2024-03-23T09:22:48;7.03;;;5.13;;
10657;SDS011;5377;43.276;26.930;2024-03-23T09:25:14;4.40;;;3.85;;
10657;SDS011;5377;43.276;26.930;2024-03-23T09:27:41;4.15;;;3.85;;
10657;SDS011;5377;43.276;26.930;2024-03-23T09:30:07;5.22;;;4.65;;
10657;SDS011;5377;43.276;26.930;2024-03-23T09:32:36;10.52;;;5.32;;
10657;SDS011;5377;43.276;26.930;2024-03-23T09:35:02;4.38;;;3.95;;
10657;SDS011;5377;43.276;26.930;2024-03-23T09:37:29;3.17;;;3.08;;
10657;SDS011;5377;43.276;26.930;2024-03-23T09:39:54;2.63;;;2.42;;
10657;SDS011;5377;43.276;26.930;2024-03-23T09:42:21;4.97;;;2.80;;
10657;SDS011;5377;43.276;26.930;2024-03-23T09:44:47;8.35;;;6.45;;
10657;SDS011;5377;43.276;26.930;2024-03-23T09:47:15;3.50;;;2.80;;
10657;SDS011;5377;43.276;26.930;2024-03-23T09:49:43;4.55;;;3.22;;
10657;SDS011;5377;43.276;26.930;2024-03-23T09:52:10;4.07;;;3.78;;
10657;SDS011;5377;43.276;26.930;2024-03-23T09:54:36;8.63;;;3.75;;
10657;SDS011;5377;43.276;26.930;2024-03-23T09:57:03;8.65;;;4.82;;
10657;SDS011;5377;43.276;26.930;2024-03-23T09:59:29;3.88;;;3.53;;
10657;SDS011;5377;43.276;26.930;2024-03-23T10:01:55;3.83;;;3.40;;
10657;SDS011;5377;43.276;26.930;2024-03-23T10:04:37;3.88;;;3.60;;
10657;SDS011;5377;43.276;26.930;2024-03-23T10:07:14;4.97;;;4.20;;
10657;SDS011;5377;43.276;26.930;2024-03-23T10:09:40;4.35;;;3.67;;
10657;SDS011;5377;43.276;26.930;2024-03-23T10:12:08;4.97;;;3.83;;
10657;SDS011;5377;43.276;26.930;2024-03-23T10:14:34;4.25;;;3.95;;
10657;SDS011;5377;43.276;26.930;2024-03-23T10:17:11;12.43;;;4.68;;
10657;SDS011;5377;43.276;26.930;2024-03-23T10:19:38;4.38;;;3.47;;
10657;SDS011;5377;43.276;26.930;2024-03-23T10:22:04;6.05;;;4.00;;
10657;SDS011;5377;43.276;26.930;2024-03-23T10:24:31;4.70;;;3.78;;
10657;SDS011;5377;43.276;26.930;2024-03-23T10:26:58;7.45;;;4.75;;
10657;SDS011;5377;43.276;26.930;2024-03-23T10:29:24;5.68;;;5.22;;
10657;SDS011;5377;43.276;26.930;2024-03-23T10:31:53;4.07;;;3.53;;
10657;SDS011;5377;43.276;26.930;2024-03-23T10:34:24;4.97;;;4.15;;
10657;SDS011;5377;43.276;26.930;2024-03-23T10:36:52;4.30;;;3.90;;
10657;SDS011;5377;43.276;26.930;2024-03-23T10:39:18;4.00;;;3.13;;
10657;SDS011;5377;43.276;26.930;2024-03-23T10:41:48;5.50;;;5.00;;
10657;SDS011;5377;43.276;26.930;2024-03-23T10:44:15;4.10;;;3.70;;
10657;SDS011;5377;43.276;26.930;2024-03-23T10:46:43;5.32;;;4.47;;
10657;SDS011;5377;43.276;26.930;2024-03-23T10:49:08;8.23;;;4.32;;
10657;SDS011;5377;43.276;26.930;2024-03-23T10:51:35;7.78;;;4.60;;
10657;SDS011;5377;43.276;26.930;2024-03-23T10:54:02;4.22;;;3.65;;
10657;SDS011;5377;43.276;26.930;2024-03-23T10:56:31;5.95;;;4.53;;
10657;SDS011;5377;43.276;26.930;2024-03-23T10:59:01;4.18;;;3.58;;
10657;SDS011;5377;43.276;26.930;2024-03-23T11:01:29;6.18;;;4.05;;
10657;SDS011;5377;43.276;26.930;2024-03-23T11:03:54;4.85;;;3.33;;
10657;SDS011;5377;43.276;26.930;2024-03-23T11:06:34;4.22;;;3.03;;
10657;SDS011;5377;43.276;26.930;2024-03-23T11:09:00;5.18;;;3.78;;
10657;SDS011;5377;43.276;26.930;2024-03-23T11:11:26;3.42;;;3.22;;
10657;SDS011;5377;43.276;26.930;2024-03-23T11:13:54;5.10;;;3.13;;
10657;SDS011;5377;43.276;26.930;2024-03-23T11:16:25;7.55;;;4.72;;
10657;SDS011;5377;43.276;26.930;2024-03-23T11:18:53;3.72;;;3.10;;
10657;SDS011;5377;43.276;26.930;2024-03-23T11:24:13;4.22;;;2.88;;
10657;SDS011;5377;43.276;26.930;2024-03-23T11:26:40;3.08;;;2.78;;
10657;SDS011;5377;43.276;26.930;2024-03-23T11:29:09;3.70;;;3.15;;
10657;SDS011;5377;43.276;26.930;2024-03-23T11:31:37;2.45;;;2.35;;
10657;SDS011;5377;43.276;26.930;2024-03-23T11:34:04;8.55;;;3.88;;
10657;SDS011;5377;43.276;26.930;2024-03-23T11:36:30;4.68;;;2.97;;
10657;SDS011;5377;43.276;26.930;2024-03-23T11:38:56;6.82;;;3.40;;
10657;SDS011;5377;43.276;26.930;2024-03-23T11:41:23;2.60;;;2.40;;
10657;SDS011;5377;43.276;26.930;2024-03-23T11:43:48;4.35;;;3.20;;
10657;SDS011;5377;43.276;26.930;2024-03-23T11:46:21;9.70;;;5.57;;
10657;SDS011;5377;43.276;26.930;2024-03-23T11:48:50;4.10;;;2.85;;
10657;SDS011;5377;43.276;26.930;2024-03-23T11:51:17;2.55;;;2.30;;
10657;SDS011;5377;43.276;26.930;2024-03-23T11:53:43;3.20;;;2.55;;
10657;SDS011;5377;43.276;26.930;2024-03-23T11:56:10;6.90;;;4.13;;
10657;SDS011;5377;43.276;26.930;2024-03-23T11:58:35;3.03;;;2.83;;
10657;SDS011;5377;43.276;26.930;2024-03-23T12:01:02;2.28;;;2.05;;
10657;SDS011;5377;43.276;26.930;2024-03-23T12:03:28;2.75;;;2.55;;
10657;SDS011;5377;43.276;26.930;2024-03-23T12:05:57;3.45;;;2.72;;
10657;SDS011;5377;43.276;26.930;2024-03-23T12:08:23;3.63;;;2.58;;
10657;SDS011;5377;43.276;26.930;2024-03-23T12:10:51;3.47;;;2.65;;
10657;SDS011;5377;43.276;26.930;2024-03-23T12:13:19;12.95;;;5.45;;
10657;SDS011;5377;43.276;26.930;2024-03-23T12:15:47;2.95;;;2.75;;
10657;SDS011;5377;43.276;26.930;2024-03-23T12:18:13;5.07;;;2.95;;
10657;SDS011;5377;43.276;26.930;2024-03-23T12:20:40;2.35;;;2.25;;
10657;SDS011;5377;43.276;26.930;2024-03-23T12:23:08;2.28;;;2.17;;
10657;SDS011;5377;43.276;26.930;2024-03-23T12:25:35;2.75;;;2.55;;
10657;SDS011;5377;43.276;26.930;2024-03-23T12:28:01;2.53;;;2.25;;
10657;SDS011;5377;43.276;26.930;2024-03-23T12:30:28;3.38;;;2.55;;
10657;SDS011;5377;43.276;26.930;2024-03-23T12:32:53;3.45;;;2.75;;
10657;SDS011;5377;43.276;26.930;2024-03-23T12:35:20;2.50;;;2.40;;
10657;SDS011;5377;43.276;26.930;2024-03-23T12:37:46;2.83;;;2.63;;
10657;SDS011;5377;43.276;26.930;2024-03-23T12:40:14;3.05;;;2.85;;
10657;SDS011;5377;43.276;26.930;2024-03-23T12:42:39;4.05;;;2.85;;
10657;SDS011;5377;43.276;26.930;2024-03-23T12:45:07;4.60;;;3.20;;
10657;SDS011;5377;43.276;26.930;2024-03-23T12:47:32;2.67;;;2.47;;
10657;SDS011;5377;43.276;26.930;2024-03-23T12:49:59;2.63;;;2.53;;
10657;SDS011;5377;43.276;26.930;2024-03-23T12:52:25;3.45;;;2.58;;
10657;SDS011;5377;43.276;26.930;2024-03-23T12:54:54;3.15;;;2.88;;
10657;SDS011;5377;43.276;26.930;2024-03-23T12:57:22;8.43;;;3.40;;
10657;SDS011;5377;43.276;26.930;2024-03-23T12:59:50;5.18;;;2.90;;
10657;SDS011;5377;43.276;26.930;2024-03-23T13:02:16;2.63;;;2.20;;
10657;SDS011;5377;43.276;26.930;2024-03-23T13:04:43;6.53;;;2.88;;
10657;SDS011;5377;43.276;26.930;2024-03-23T13:07:09;2.72;;;2.35;;
10657;SDS011;5377;43.276;26.930;2024-03-23T13:09:36;10.98;;;4.20;;
10657;SDS011;5377;43.276;26.930;2024-03-23T13:12:01;2.75;;;2.47;;
10657;SDS011;5377;43.276;26.930;2024-03-23T13:14:30;2.85;;;2.10;;
10657;SDS011;5377;43.276;26.930;2024-03-23T13:16:55;14.18;;;4.72;;
10657;SDS011;5377;43.276;26.930;2024-03-23T13:19:22;5.28;;;2.50;;
10657;SDS011;5377;43.276;26.930;2024-03-23T13:21:52;2.65;;;2.45;;
10657;SDS011;5377;43.276;26.930;2024-03-23T13:24:21;2.85;;;2.47;;
10657;SDS011;5377;43.276;26.930;2024-03-23T13:26:46;2.42;;;2.22;;
10657;SDS011;5377;43.276;26.930;2024-03-23T13:29:13;3.15;;;2.85;;
10657;SDS011;5377;43.276;26.930;2024-03-23T13:31:40;2.25;;;2.10;;
10657;SDS011;5377;43.276;26.930;2024-03-23T13:34:07;2.25;;;2.03;;
10657;SDS011;5377;43.276;26.930;2024-03-23T13:36:33;2.58;;;2.38;;
10657;SDS011;5377;43.276;26.930;2024-03-23T13:39:00;4.47;;;2.17;;
10657;SDS011;5377;43.276;26.930;2024-03-23T13:41:27;3.75;;;2.67;;
10657;SDS011;5377;43.276;26.930;2024-03-23T13:43:53;3.17;;;2.15;;
10657;SDS011;5377;43.276;26.930;2024-03-23T13:46:19;5.20;;;2.17;;
10657;SDS011;5377;43.276;26.930;2024-03-23T13:48:47;4.22;;;2.80;;
10657;SDS011;5377;43.276;26.930;2024-03-23T13:51:13;5.07;;;2.08;;
10657;SDS011;5377;43.276;26.930;2024-03-23T13:53:39;2.72;;;1.90;;
10657;SDS011;5377;43.276;26.930;2024-03-23T13:56:05;3.95;;;2.35;;
10657;SDS011;5377;43.276;26.930;2024-03-23T13:58:32;5.70;;;3.42;;
10657;SDS011;5377;43.276;26.930;2024-03-23T14:00:58;2.33;;;2.22;;
10657;SDS011;5377;43.276;26.930;2024-03-23T14:03:25;3.30;;;1.85;;
10657;SDS011;5377;43.276;26.930;2024-03-23T14:05:52;1.45;;;1.45;;
10657;SDS011;5377;43.276;26.930;2024-03-23T14:08:19;4.47;;;3.65;;
10657;SDS011;5377;43.276;26.930;2024-03-23T14:10:46;5.63;;;2.65;;
10657;SDS011;5377;43.276;26.930;2024-03-23T14:13:13;3.38;;;2.88;;
10657;SDS011;5377;43.276;26.930;2024-03-23T14:15:39;4.53;;;2.95;;
10657;SDS011;5377;43.276;26.930;2024-03-23T14:18:06;3.72;;;2.17;;
10657;SDS011;5377;43.276;26.930;2024-03-23T14:20:31;2.45;;;1.55;;
10657;SDS011;5377;43.276;26.930;2024-03-23T14:22:59;5.10;;;3.13;;
10657;SDS011;5377;43.276;26.930;2024-03-23T14:25:25;2.03;;;1.92;;
10657;SDS011;5377;43.276;26.930;2024-03-23T14:27:54;2.65;;;2.22;;
10657;SDS011;5377;43.276;26.930;2024-03-23T14:30:20;5.55;;;3.25;;
10657;SDS011;5377;43.276;26.930;2024-03-23T14:32:46;3.53;;;3.10;;
10657;SDS011;5377;43.276;26.930;2024-03-23T14:35:12;5.35;;;4.38;;
10657;SDS011;5377;43.276;26.930;2024-03-23T14:37:39;3.90;;;2.50;;
10657;SDS011;5377;43.276;26.930;2024-03-23T14:40:09;4.35;;;2.72;;
10657;SDS011;5377;43.276;26.930;2024-03-23T14:42:38;3.10;;;2.00;;
10657;SDS011;5377;43.276;26.930;2024-03-23T14:45:04;2.80;;;2.60;;
10657;SDS011;5377;43.276;26.930;2024-03-23T14:47:30;3.47;;;2.00;;
10657;SDS011;5377;43.276;26.930;2024-03-23T14:49:56;2.20;;;2.10;;
10657;SDS011;5377;43.276;26.930;2024-03-23T14:52:24;1.95;;;1.85;;
10657;SDS011;5377;43.276;26.930;2024-03-23T14:54:49;5.25;;;2.70;;
10657;SDS011;5377;43.276;26.930;2024-03-23T14:57:17;3.25;;;2.47;;
10657;SDS011;5377;43.276;26.930;2024-03-23T14:59:45;3.97;;;2.47;;
10657;SDS011;5377;43.276;26.930;2024-03-23T15:02:12;6.35;;;2.97;;
10657;SDS011;5377;43.276;26.930;2024-03-23T15:04:38;7.45;;;5.13;;
10657;SDS011;5377;43.276;26.930;2024-03-23T15:07:07;2.58;;;2.05;;
10657;SDS011;5377;43.276;26.930;2024-03-23T15:09:32;3.17;;;2.30;;
10657;SDS011;5377;43.276;26.930;2024-03-23T15:11:59;4.57;;;3.90;;
10657;SDS011;5377;43.276;26.930;2024-03-23T15:14:26;2.53;;;2.20;;
10657;SDS011;5377;43.276;26.930;2024-03-23T15:16:53;5.28;;;2.42;;
10657;SDS011;5377;43.276;26.930;2024-03-23T15:19:19;2.70;;;2.50;;
10657;SDS011;5377;43.276;26.930;2024-03-23T15:21:45;4.95;;;3.00;;
10657;SDS011;5377;43.276;26.930;2024-03-23T15:24:11;2.83;;;2.63;;
10657;SDS011;5377;43.276;26.930;2024-03-23T15:26:38;3.95;;;2.95;;